Terminal Aerodrome Forecast
Issued by NWS

Current Version | Previous Version | Graphics & Text | Print | Product List | Glossary On
Versions: 1 2 3 4 5 6 7 8 9 10 11 12 13 14 15 16 17 18
000
FTUS41 KILN 201700
TAFLUK
TAF
KLUK 201740Z 2018/2118 17006KT P6SM FEW050 SCT250
     FM210000 00000KT P6SM SCT050 BKN250
     FM211700 23008KT P6SM SCT050 BKN100=

USA.gov is the U.S. government's official web portal to all federal, state and local government web resources and services.